Time;durP1;ratioP1;P1;durP2;ratioP2;P2;SDS_P1;SDS_P2;PMS_P1;PMS_P2;Temp;Humidity;BMP_temperature;BMP_pressure;BME280_temperature;BME280_humidity;BME280_pressure;Samples;Min_cycle;Max_cycle;Signal;HPM_P1;HPM_P2
2021/11/17 02:27:25;;;;;;;5.82;5.07;;;;;;;;;;5014626;28;20034;-59
2021/11/17 02:30:16;;;;;;;5.18;4.25;;;;;;;;;;5015555;28;20045;-59
2021/11/17 02:32:51;;;;;;;8.35;4.88;;;;;;;;;;5015971;28;20041;-58
2021/11/17 02:35:38;;;;;;;5.47;4.57;;;;;;;;;;5016300;28;20049;-59
2021/11/17 02:38:32;;;;;;;6.50;4.65;;;;;;;;;;5016724;28;20096;-59
2021/11/17 02:41:28;;;;;;;4.80;3.75;;;;;;;;;;5012173;28;20041;-57
2021/11/17 02:44:14;;;;;;;7.03;4.75;;;;;;;;;;5009995;28;20030;-57
2021/11/17 02:46:48;;;;;;;6.95;5.10;;;;;;;;;;5014356;28;20554;-58
2021/11/17 02:49:23;;;;;;;4.13;3.65;;;;;;;;;;5018269;28;20045;-57
2021/11/17 02:52:07;;;;;;;12.48;4.75;;;;;;;;;;5014841;28;20042;-58
2021/11/17 02:55:23;;;;;;;7.47;4.50;;;;;;;;;;5014641;28;20551;-57
2021/11/17 02:57:50;;;;;;;6.72;5.03;;;;;;;;;;4996780;28;20049;-57
2021/11/17 03:00:30;;;;;;;5.68;3.78;;;;;;;;;;5014741;28;20038;-58
2021/11/17 03:03:11;;;;;;;4.75;4.13;;;;;;;;;;5004196;28;20033;-58
2021/11/17 03:05:48;;;;;;;5.38;3.80;;;;;;;;;;5015744;28;20085;-58
2021/11/17 03:08:35;;;;;;;5.28;3.75;;;;;;;;;;5017480;28;20034;-58
2021/11/17 03:11:23;;;;;;;7.10;4.30;;;;;;;;;;5016137;28;20049;-58
2021/11/17 03:14:06;;;;;;;6.50;4.60;;;;;;;;;;5014239;28;20026;-59
2021/11/17 03:16:58;;;;;;;6.93;4.70;;;;;;;;;;5017765;28;20041;-58
2021/11/17 03:19:38;;;;;;;5.55;4.45;;;;;;;;;;5015945;28;20044;-59
2021/11/17 03:22:06;;;;;;;7.00;3.85;;;;;;;;;;5014505;28;20038;-59
2021/11/17 03:24:37;;;;;;;6.30;4.57;;;;;;;;;;5015427;28;20053;-59
2021/11/17 03:27:08;;;;;;;;;;;;;;;;;;5033243;28;20060;-59
2021/11/17 03:29:42;;;;;;;7.22;3.05;;;;;;;;;;5016172;28;19916;-59
2021/11/17 03:32:23;;;;;;;9.48;4.63;;;;;;;;;;5013965;28;20135;-59
2021/11/17 03:35:06;;;;;;;6.03;4.60;;;;;;;;;;5016244;28;20060;-60
2021/11/17 03:37:38;;;;;;;4.93;4.00;;;;;;;;;;5014682;28;20030;-60
2021/11/17 03:40:11;;;;;;;;;;;;;;;;;;5019198;28;20455;-59
2021/11/17 03:43:01;;;;;;;4.70;4.07;;;;;;;;;;5017313;28;19909;-59
2021/11/17 03:46:17;;;;;;;8.43;4.93;;;;;;;;;;5016529;28;20038;-59
2021/11/17 03:49:08;;;;;;;6.10;4.15;;;;;;;;;;4999578;28;20042;-58
2021/11/17 03:51:59;;;;;;;6.53;5.03;;;;;;;;;;5013655;28;21083;-57
2021/11/17 03:54:34;;;;;;;;;;;;;;;;;;5015132;28;20348;-58
2021/11/17 03:57:17;;;;;;;5.47;3.97;;;;;;;;;;5015239;28;19921;-59
2021/11/17 03:59:55;;;;;;;5.97;4.60;;;;;;;;;;5016293;28;20022;-58
2021/11/17 04:02:34;;;;;;;4.75;4.15;;;;;;;;;;5014562;28;20025;-59
2021/11/17 04:05:05;;;;;;;5.72;4.47;;;;;;;;;;5014627;28;20045;-59
2021/11/17 04:07:49;;;;;;;4.75;4.03;;;;;;;;;;5015200;28;20048;-58
2021/11/17 04:10:26;;;;;;;6.65;4.43;;;;;;;;;;5017890;28;20045;-58
2021/11/17 04:13:06;;;;;;;11.50;5.88;;;;;;;;;;5015142;28;20434;-58
2021/11/17 04:15:47;;;;;;;6.50;3.47;;;;;;;;;;5017086;28;20034;-57
2021/11/17 04:18:25;;;;;;;4.07;3.40;;;;;;;;;;5012973;28;20041;-57
2021/11/17 04:21:04;;;;;;;6.38;4.65;;;;;;;;;;5012950;28;20280;-59
2021/11/17 04:23:36;;;;;;;6.35;5.05;;;;;;;;;;5015472;28;20044;-58
2021/11/17 04:26:18;;;;;;;6.20;4.90;;;;;;;;;;5013884;28;20069;-58
2021/11/17 04:28:56;;;;;;;6.97;5.47;;;;;;;;;;5015168;28;20367;-58
2021/11/17 04:31:27;;;;;;;8.00;4.35;;;;;;;;;;5014269;28;20034;-58
2021/11/17 04:34:30;;;;;;;10.07;4.75;;;;;;;;;;5013325;28;20036;-58
2021/11/17 04:37:08;;;;;;;5.07;4.22;;;;;;;;;;5017098;28;20148;-58
2021/11/17 04:39:46;;;;;;;8.55;4.00;;;;;;;;;;5016128;28;20034;-59
2021/11/17 04:42:18;;;;;;;7.45;4.10;;;;;;;;;;5015559;28;20475;-59
2021/11/17 04:45:21;;;;;;;11.45;4.55;;;;;;;;;;5014654;28;20100;-59
2021/11/17 04:48:05;;;;;;;7.00;3.72;;;;;;;;;;5011271;28;20034;-59
2021/11/17 04:50:49;;;;;;;3.47;2.40;;;;;;;;;;5012134;28;20052;-58
2021/11/17 04:53:50;;;;;;;7.10;4.35;;;;;;;;;;5015401;28;20037;-59
2021/11/17 04:56:40;;;;;;;6.55;4.07;;;;;;;;;;4988348;28;20120;-59
2021/11/17 04:59:17;;;;;;;5.55;4.32;;;;;;;;;;5010545;28;20037;-58
2021/11/17 05:01:45;;;;;;;7.18;4.63;;;;;;;;;;5009743;28;20040;-58
2021/11/17 05:04:32;;;;;;;6.38;4.57;;;;;;;;;;5014487;28;20091;-57
2021/11/17 05:07:06;;;;;;;10.55;5.07;;;;;;;;;;5013600;28;20037;-57
2021/11/17 05:09:50;;;;;;;8.13;5.82;;;;;;;;;;5013661;28;20040;-58
2021/11/17 05:12:18;;;;;;;5.28;4.03;;;;;;;;;;5013779;28;20125;-58
2021/11/17 05:14:49;;;;;;;5.78;4.80;;;;;;;;;;5015908;28;20102;-58
2021/11/17 05:17:35;;;;;;;5.30;4.70;;;;;;;;;;5014496;28;20037;-59
2021/11/17 05:20:15;;;;;;;6.45;5.00;;;;;;;;;;5014788;28;20368;-59
2021/11/17 05:23:16;;;;;;;6.22;4.72;;;;;;;;;;5012730;28;20041;-59
2021/11/17 05:25:50;;;;;;;6.93;4.47;;;;;;;;;;4965255;28;20042;-59
2021/11/17 05:28:44;;;;;;;5.15;4.18;;;;;;;;;;5015397;28;20413;-59
2021/11/17 05:31:22;;;;;;;11.05;5.75;;;;;;;;;;5013188;28;20029;-57
2021/11/17 05:34:42;;;;;;;4.80;3.70;;;;;;;;;;5017288;28;20034;-57
2021/11/17 05:37:29;;;;;;;6.25;4.80;;;;;;;;;;5005955;28;20113;-57
2021/11/17 05:40:13;;;;;;;5.15;3.78;;;;;;;;;;5013152;28;20459;-58
2021/11/17 05:42:48;;;;;;;5.55;4.40;;;;;;;;;;5014597;28;20049;-57
2021/11/17 05:45:56;;;;;;;3.95;3.35;;;;;;;;;;5016922;28;20108;-58
2021/11/17 05:48:28;;;;;;;4.85;4.05;;;;;;;;;;5013911;28;20363;-59
2021/11/17 05:50:57;;;;;;;4.82;3.95;;;;;;;;;;5011520;28;20072;-59
2021/11/17 05:53:31;;;;;;;6.07;4.65;;;;;;;;;;5010996;28;20546;-59
2021/11/17 05:56:25;;;;;;;6.90;3.58;;;;;;;;;;5016240;28;20425;-59
2021/11/17 05:59:09;;;;;;;5.47;3.63;;;;;;;;;;5013385;28;20029;-58
2021/11/17 06:01:46;;;;;;;3.88;3.45;;;;;;;;;;5016242;28;20034;-59
2021/11/17 06:04:11;;;;;;;5.60;4.57;;;;;;;;;;5015065;28;20060;-58
2021/11/17 06:06:38;;;;;;;4.55;3.95;;;;;;;;;;5014952;28;20041;-58
2021/11/17 06:09:06;;;;;;;7.25;5.00;;;;;;;;;;5017364;28;20026;-58
2021/11/17 06:11:37;;;;;;;5.40;3.90;;;;;;;;;;5013591;28;20064;-58
2021/11/17 06:14:04;;;;;;;6.40;3.60;;;;;;;;;;5014233;28;20045;-58
2021/11/17 06:16:40;;;;;;;4.35;3.28;;;;;;;;;;5019477;28;20101;-58
2021/11/17 06:19:06;;;;;;;7.22;3.72;;;;;;;;;;5021874;28;20069;-58
2021/11/17 06:21:33;;;;;;;6.72;3.65;;;;;;;;;;5016660;28;20192;-58
2021/11/17 06:24:01;;;;;;;4.82;3.88;;;;;;;;;;5015766;28;20062;-58
2021/11/17 06:26:31;;;;;;;5.18;3.33;;;;;;;;;;5017489;28;20042;-58
2021/11/17 06:29:00;;;;;;;4.97;4.03;;;;;;;;;;5019185;28;20083;-58
2021/11/17 06:31:27;;;;;;;8.63;4.47;;;;;;;;;;5017285;28;20125;-59
2021/11/17 06:33:53;;;;;;;5.68;4.65;;;;;;;;;;5018053;28;20033;-60
2021/11/17 06:36:18;;;;;;;5.53;4.07;;;;;;;;;;5019641;28;20780;-59
2021/11/17 06:38:45;;;;;;;7.22;4.13;;;;;;;;;;5018906;28;20088;-59
2021/11/17 06:41:13;;;;;;;8.35;5.20;;;;;;;;;;5012184;28;20136;-59
2021/11/17 06:43:39;;;;;;;11.82;4.47;;;;;;;;;;5016809;28;20026;-58
2021/11/17 06:46:04;;;;;;;6.50;4.20;;;;;;;;;;5016783;28;20045;-58
2021/11/17 06:48:30;;;;;;;5.03;4.13;;;;;;;;;;5012650;28;20570;-58
2021/11/17 06:50:58;;;;;;;4.53;3.40;;;;;;;;;;5016999;28;20340;-58
2021/11/17 06:53:26;;;;;;;4.53;3.28;;;;;;;;;;5014982;28;20116;-59
2021/11/17 06:55:52;;;;;;;6.10;4.15;;;;;;;;;;5011673;28;20388;-59
2021/11/17 06:58:19;;;;;;;4.80;3.30;;;;;;;;;;5014530;28;20056;-59
2021/11/17 07:00:46;;;;;;;6.10;3.90;;;;;;;;;;5015143;28;20080;-59
2021/11/17 07:03:12;;;;;;;3.97;3.30;;;;;;;;;;5014273;28;20428;-59
2021/11/17 07:05:38;;;;;;;5.75;3.63;;;;;;;;;;5015319;28;20096;-59
2021/11/17 07:08:04;;;;;;;3.95;3.15;;;;;;;;;;5014181;28;20104;-60
2021/11/17 07:10:31;;;;;;;4.90;3.20;;;;;;;;;;5012478;28;20559;-58
2021/11/17 07:12:58;;;;;;;4.35;3.22;;;;;;;;;;5014880;28;20065;-59
2021/11/17 07:15:26;;;;;;;3.70;3.08;;;;;;;;;;5016554;28;20030;-59
2021/11/17 07:17:51;;;;;;;4.40;3.90;;;;;;;;;;5016577;28;20033;-59
2021/11/17 07:20:17;;;;;;;4.80;3.70;;;;;;;;;;5016770;28;20088;-57
2021/11/17 07:22:43;;;;;;;3.38;2.95;;;;;;;;;;5017546;28;20041;-59
2021/11/17 07:25:12;;;;;;;4.88;3.08;;;;;;;;;;5016545;28;20045;-58
2021/11/17 07:27:38;;;;;;;5.50;4.65;;;;;;;;;;4999720;28;20054;-58
2021/11/17 07:30:07;;;;;;;4.18;3.75;;;;;;;;;;5017615;28;20462;-59
2021/11/17 07:32:32;;;;;;;4.63;3.78;;;;;;;;;;5017161;28;20030;-59
2021/11/17 07:34:58;;;;;;;3.97;3.33;;;;;;;;;;5013958;28;20022;-59
2021/11/17 07:37:24;;;;;;;3.72;3.10;;;;;;;;;;5014881;28;20029;-58
2021/11/17 07:39:50;;;;;;;3.50;3.00;;;;;;;;;;5017586;28;20034;-58
2021/11/17 07:42:15;;;;;;;3.28;2.53;;;;;;;;;;5013848;28;20087;-58
2021/11/17 07:44:43;;;;;;;3.70;2.90;;;;;;;;;;5020393;28;20340;-59
2021/11/17 07:47:09;;;;;;;3.95;3.10;;;;;;;;;;5014923;28;20081;-59
2021/11/17 07:49:34;;;;;;;3.60;2.88;;;;;;;;;;5014958;28;20054;-59
2021/11/17 07:51:59;;;;;;;3.42;2.55;;;;;;;;;;5015813;28;20417;-59
2021/11/17 07:54:27;;;;;;;3.05;2.53;;;;;;;;;;5015980;28;20030;-59
2021/11/17 07:56:53;;;;;;;2.88;2.45;;;;;;;;;;5016246;28;20068;-59
2021/11/17 07:59:23;;;;;;;3.78;2.60;;;;;;;;;;5014450;28;20038;-57
2021/11/17 08:01:50;;;;;;;2.83;2.42;;;;;;;;;;5012781;28;20029;-57
2021/11/17 08:04:17;;;;;;;3.00;2.55;;;;;;;;;;5016947;28;20752;-57
2021/11/17 08:06:44;;;;;;;4.00;2.85;;;;;;;;;;5015985;28;20049;-58
2021/11/17 08:09:10;;;;;;;2.95;2.25;;;;;;;;;;5016318;28;20503;-57
2021/11/17 08:11:37;;;;;;;6.07;3.35;;;;;;;;;;5015253;28;20033;-57
2021/11/17 08:14:03;;;;;;;2.67;2.08;;;;;;;;;;5016088;28;20347;-59
2021/11/17 08:16:28;;;;;;;3.60;2.92;;;;;;;;;;5015173;28;20037;-59
2021/11/17 08:18:54;;;;;;;3.42;2.60;;;;;;;;;;5015637;28;20029;-59
2021/11/17 08:21:20;;;;;;;2.92;2.42;;;;;;;;;;5015370;28;20087;-59
2021/11/17 08:23:45;;;;;;;4.43;2.13;;;;;;;;;;5012744;28;20038;-59
2021/11/17 08:26:11;;;;;;;2.70;2.13;;;;;;;;;;5014297;28;20037;-59
2021/11/17 08:28:39;;;;;;;2.90;2.30;;;;;;;;;;4994115;28;20463;-57
2021/11/17 08:31:05;;;;;;;2.63;2.03;;;;;;;;;;5015698;28;20143;-56
2021/11/17 08:33:31;;;;;;;3.63;2.63;;;;;;;;;;5015258;28;20101;-57
2021/11/17 08:35:57;;;;;;;3.25;2.60;;;;;;;;;;5015277;28;20121;-57
2021/11/17 08:38:24;;;;;;;3.38;2.30;;;;;;;;;;5013810;28;20117;-57
2021/11/17 08:40:56;;;;;;;2.78;2.00;;;;;;;;;;5013302;28;20352;-57
2021/11/17 08:43:22;;;;;;;3.25;2.22;;;;;;;;;;5011134;28;20033;-59
2021/11/17 08:45:48;;;;;;;3.22;2.40;;;;;;;;;;5013350;28;20072;-59
2021/11/17 08:48:16;;;;;;;4.90;2.65;;;;;;;;;;5016213;28;20443;-59
2021/11/17 08:50:42;;;;;;;4.15;2.17;;;;;;;;;;5018508;28;20033;-59
2021/11/17 08:53:10;;;;;;;2.97;2.20;;;;;;;;;;5015503;28;20371;-59
2021/11/17 08:55:36;;;;;;;3.67;2.50;;;;;;;;;;5019075;28;20037;-59
2021/11/17 08:58:03;;;;;;;2.92;2.47;;;;;;;;;;5013395;28;20037;-59
2021/11/17 09:00:30;;;;;;;3.03;2.42;;;;;;;;;;5014535;28;20041;-59
2021/11/17 09:02:57;;;;;;;2.75;2.33;;;;;;;;;;5011928;28;20129;-59
2021/11/17 09:05:26;;;;;;;2.63;2.15;;;;;;;;;;5020638;28;20078;-59
2021/11/17 09:07:52;;;;;;;2.70;2.00;;;;;;;;;;5015792;28;20034;-59
2021/11/17 09:10:22;;;;;;;3.05;2.20;;;;;;;;;;5013115;28;20038;-59
2021/11/17 09:12:48;;;;;;;2.67;2.20;;;;;;;;;;5017059;28;20037;-59
2021/11/17 09:15:14;;;;;;;2.70;2.22;;;;;;;;;;5014612;28;20044;-58
2021/11/17 09:17:42;;;;;;;2.80;2.47;;;;;;;;;;5019035;28;20052;-59
2021/11/17 09:20:10;;;;;;;2.75;2.30;;;;;;;;;;5015504;28;20446;-59
2021/11/17 09:22:36;;;;;;;2.50;1.90;;;;;;;;;;5013897;28;20553;-59
2021/11/17 09:25:04;;;;;;;4.30;2.70;;;;;;;;;;5017800;28;20029;-59
2021/11/17 09:27:29;;;;;;;2.83;2.03;;;;;;;;;;5013336;28;20157;-56
2021/11/17 09:29:55;;;;;;;2.75;2.33;;;;;;;;;;5017034;28;20114;-59
2021/11/17 09:32:21;;;;;;;3.05;2.42;;;;;;;;;;5018303;28;20033;-59
2021/11/17 09:34:46;;;;;;;3.15;2.45;;;;;;;;;;5017435;28;20026;-60
2021/11/17 09:37:12;;;;;;;2.63;2.03;;;;;;;;;;5014981;28;20034;-60
2021/11/17 09:39:40;;;;;;;2.90;2.55;;;;;;;;;;5017636;28;20061;-59
2021/11/17 09:42:07;;;;;;;2.80;2.35;;;;;;;;;;5018823;28;20065;-59
2021/11/17 09:44:43;;;;;;;3.20;2.80;;;;;;;;;;5015368;28;20068;-59
2021/11/17 09:47:13;;;;;;;2.78;2.42;;;;;;;;;;5018482;28;20034;-58
2021/11/17 09:49:49;;;;;;;3.10;2.47;;;;;;;;;;5015786;28;20575;-58
2021/11/17 09:52:21;;;;;;;3.03;2.50;;;;;;;;;;5016677;28;20367;-58
2021/11/17 09:55:04;;;;;;;3.33;2.88;;;;;;;;;;5012151;28;20049;-58
2021/11/17 09:57:34;;;;;;;2.75;2.28;;;;;;;;;;5019250;28;20037;-55
2021/11/17 10:00:41;;;;;;;2.97;2.63;;;;;;;;;;5017137;28;20478;-58
2021/11/17 10:03:09;;;;;;;3.15;2.70;;;;;;;;;;5017003;28;20113;-57
2021/11/17 10:11:40;;;;;;;4.05;3.20;;;;;;;;;;5014086;28;20168;-60
2021/11/17 10:14:25;;;;;;;3.00;2.67;;;;;;;;;;5017891;28;20410;-60
2021/11/17 10:16:51;;;;;;;3.47;2.80;;;;;;;;;;5016340;28;20063;-60
2021/11/17 10:19:32;;;;;;;2.78;2.17;;;;;;;;;;5018732;28;20041;-60
2021/11/17 10:21:58;;;;;;;;;;;;;;;;;;5018956;28;20134;-57
2021/11/17 10:24:39;;;;;;;3.03;2.30;;;;;;;;;;5019588;28;20004;-58
2021/11/17 10:27:06;;;;;;;3.55;2.97;;;;;;;;;;5015931;28;20041;-59
2021/11/17 10:29:44;;;;;;;3.67;2.85;;;;;;;;;;5018884;28;20403;-58
2021/11/17 10:32:23;;;;;;;3.42;2.83;;;;;;;;;;5017352;28;20037;-58
2021/11/17 10:34:52;;;;;;;9.13;3.58;;;;;;;;;;5020337;28;20177;-58
2021/11/17 10:37:32;;;;;;;3.25;2.17;;;;;;;;;;5015869;28;20030;-58
2021/11/17 10:40:11;;;;;;;2.90;2.37;;;;;;;;;;5015283;28;20041;-54
2021/11/17 10:42:38;;;;;;;3.80;3.47;;;;;;;;;;5013852;28;20045;-53
2021/11/17 10:45:09;;;;;;;2.80;2.40;;;;;;;;;;5013398;28;20029;-54
2021/11/17 10:47:39;;;;;;;3.25;2.65;;;;;;;;;;5015589;28;20037;-56
2021/11/17 10:50:04;;;;;;;3.35;2.50;;;;;;;;;;5015374;28;20507;-56
2021/11/17 10:52:41;;;;;;;4.78;2.65;;;;;;;;;;5015960;28;20041;-57
2021/11/17 10:55:31;;;;;;;3.70;3.00;;;;;;;;;;5015283;28;20100;-58
2021/11/17 10:57:57;;;;;;;3.03;2.70;;;;;;;;;;5014414;28;20033;-58
2021/11/17 11:00:30;;;;;;;4.80;2.70;;;;;;;;;;5016318;28;20315;-59
2021/11/17 11:02:57;;;;;;;3.25;2.67;;;;;;;;;;5015417;28;20050;-54
2021/11/17 11:05:26;;;;;;;3.45;2.97;;;;;;;;;;5014758;28;20037;-55
2021/11/17 11:08:04;;;;;;;4.13;2.58;;;;;;;;;;5011650;28;20026;-55
2021/11/17 11:10:49;;;;;;;3.53;2.85;;;;;;;;;;5010840;28;20125;-56
2021/11/17 11:13:50;;;;;;;3.38;2.75;;;;;;;;;;5015104;28;20100;-54
2021/11/17 11:16:48;;;;;;;2.72;2.20;;;;;;;;;;5010509;28;20037;-54
2021/11/17 11:19:13;;;;;;;2.53;1.92;;;;;;;;;;5017156;28;20152;-55
2021/11/17 11:21:42;;;;;;;3.90;2.90;;;;;;;;;;5017761;28;20104;-55
2021/11/17 11:24:23;;;;;;;3.67;3.03;;;;;;;;;;5016482;28;20640;-55
2021/11/17 11:26:58;;;;;;;2.85;2.50;;;;;;;;;;5013644;28;20545;-52
2021/11/17 11:29:34;;;;;;;3.08;2.53;;;;;;;;;;5017012;28;20120;-55
2021/11/17 11:32:06;;;;;;;2.97;2.30;;;;;;;;;;5018660;28;20041;-54
2021/11/17 11:34:33;;;;;;;;;;;;;;;;;;5016425;28;20053;-53
2021/11/17 11:37:00;;;;;;;3.00;2.55;;;;;;;;;;5015457;28;19913;-54
2021/11/17 11:39:31;;;;;;;3.50;3.05;;;;;;;;;;5016698;28;20375;-52
2021/11/17 11:42:14;;;;;;;2.70;2.15;;;;;;;;;;5028651;28;20037;-53
2021/11/17 11:44:45;;;;;;;3.30;2.33;;;;;;;;;;5017705;28;20045;-55
2021/11/17 11:47:10;;;;;;;3.72;2.40;;;;;;;;;;5016168;28;20087;-54
2021/11/17 11:49:44;;;;;;;3.25;2.33;;;;;;;;;;5014342;28;20119;-53
2021/11/17 11:52:19;;;;;;;2.92;2.47;;;;;;;;;;5017232;28;20087;-51
2021/11/17 11:55:11;;;;;;;3.83;2.90;;;;;;;;;;5016078;28;20363;-54
2021/11/17 11:57:45;;;;;;;3.22;2.55;;;;;;;;;;5015350;28;20454;-54
2021/11/17 12:00:23;;;;;;;3.00;2.65;;;;;;;;;;5014700;28;20048;-54
2021/11/17 12:03:05;;;;;;;3.03;2.72;;;;;;;;;;5013873;28;20435;-55
2021/11/17 12:05:35;;;;;;;3.80;2.65;;;;;;;;;;5001593;28;20037;-55
2021/11/17 12:08:13;;;;;;;3.33;3.03;;;;;;;;;;5015821;28;20026;-54
2021/11/17 12:10:50;;;;;;;3.20;2.58;;;;;;;;;;5012303;28;20057;-59
2021/11/17 12:13:26;;;;;;;2.88;2.35;;;;;;;;;;5014095;28;20427;-59
2021/11/17 12:16:06;;;;;;;3.00;2.53;;;;;;;;;;5019389;28;20038;-59
2021/11/17 12:18:50;;;;;;;3.22;2.90;;;;;;;;;;5016631;28;20033;-54
2021/11/17 12:21:37;;;;;;;3.55;3.00;;;;;;;;;;5013817;28;20075;-55
2021/11/17 12:24:18;;;;;;;2.90;2.47;;;;;;;;;;5015403;28;20104;-53
2021/11/17 12:26:56;;;;;;;3.47;2.87;;;;;;;;;;5010345;28;20026;-55
2021/11/17 12:29:25;;;;;;;2.70;2.20;;;;;;;;;;5014292;28;20045;-53
2021/11/17 12:31:55;;;;;;;3.42;2.42;;;;;;;;;;5000024;28;20648;-53
2021/11/17 12:34:23;;;;;;;4.65;3.47;;;;;;;;;;5014312;28;20045;-54
2021/11/17 12:36:57;;;;;;;3.00;2.47;;;;;;;;;;5013526;28;20034;-55
2021/11/17 12:39:34;;;;;;;5.72;2.50;;;;;;;;;;5014540;28;20038;-56
2021/11/17 12:42:06;;;;;;;2.88;2.35;;;;;;;;;;5013369;28;20029;-61
2021/11/17 12:44:33;;;;;;;;;;;;;;;;;;5013402;28;20065;-59
2021/11/17 12:47:19;;;;;;;3.60;2.60;;;;;;;;;;5014255;28;19961;-59
2021/11/17 12:50:08;;;;;;;3.22;2.53;;;;;;;;;;5012637;28;20476;-59
2021/11/17 12:52:39;;;;;;;3.45;2.85;;;;;;;;;;5016932;28;20125;-59
2021/11/17 12:55:13;;;;;;;3.38;2.78;;;;;;;;;;5014809;28;20029;-58
2021/11/17 12:57:51;;;;;;;3.60;2.65;;;;;;;;;;5012385;28;20207;-60
2021/11/17 13:00:19;;;;;;;2.95;2.63;;;;;;;;;;5014434;28;20466;-60
2021/11/17 13:02:55;;;;;;;2.85;2.53;;;;;;;;;;5015038;28;20044;-60
2021/11/17 13:05:32;;;;;;;3.15;2.58;;;;;;;;;;5010260;28;20375;-61
2021/11/17 13:08:03;;;;;;;3.15;2.78;;;;;;;;;;5012185;28;20030;-61
2021/11/17 13:10:42;;;;;;;3.17;2.85;;;;;;;;;;5013247;28;20108;-61
2021/11/17 13:13:17;;;;;;;4.03;2.95;;;;;;;;;;5011112;28;20104;-61
2021/11/17 13:15:49;;;;;;;4.50;2.85;;;;;;;;;;5014610;28;20073;-56
2021/11/17 13:18:33;;;;;;;2.80;2.42;;;;;;;;;;5015156;28;20034;-59
2021/11/17 13:21:17;;;;;;;3.15;2.47;;;;;;;;;;5014841;28;20026;-60
2021/11/17 13:23:48;;;;;;;2.95;2.33;;;;;;;;;;5012983;28;20044;-60
2021/11/17 13:26:28;;;;;;;3.08;2.38;;;;;;;;;;5012713;28;20038;-60
2021/11/17 13:28:54;;;;;;;2.70;2.22;;;;;;;;;;5014797;28;20552;-59
2021/11/17 13:31:33;;;;;;;2.70;2.13;;;;;;;;;;5014824;28;20120;-59
2021/11/17 13:34:30;;;;;;;3.90;3.05;;;;;;;;;;5017227;28;20498;-60
2021/11/17 13:37:31;;;;;;;3.00;2.50;;;;;;;;;;5012060;28;20049;-60
2021/11/17 13:39:59;;;;;;;3.40;2.53;;;;;;;;;;5016173;28;20513;-59
2021/11/17 13:42:26;;;;;;;3.13;2.60;;;;;;;;;;5014706;28;20107;-59
2021/11/17 13:44:54;;;;;;;2.80;2.45;;;;;;;;;;5012960;28;20029;-54
2021/11/17 13:47:22;;;;;;;3.13;2.58;;;;;;;;;;5012766;28;20036;-51
2021/11/17 13:49:51;;;;;;;3.40;2.78;;;;;;;;;;5012449;28;20460;-54
2021/11/17 13:52:23;;;;;;;3.00;2.35;;;;;;;;;;5013350;28;20041;-59
2021/11/17 13:54:49;;;;;;;4.10;3.15;;;;;;;;;;5011762;28;20034;-58
2021/11/17 13:57:15;;;;;;;3.35;2.15;;;;;;;;;;5013118;28;20025;-58
2021/11/17 13:59:42;;;;;;;2.65;2.17;;;;;;;;;;5014779;28;20543;-51
2021/11/17 14:02:08;;;;;;;3.05;2.45;;;;;;;;;;5013741;28;20048;-53
2021/11/17 14:04:34;;;;;;;2.60;2.08;;;;;;;;;;5014367;28;20618;-50
2021/11/17 14:06:59;;;;;;;2.80;2.38;;;;;;;;;;5015377;28;20104;-58
2021/11/17 14:09:26;;;;;;;3.22;2.45;;;;;;;;;;5011880;28;20040;-52
2021/11/17 14:11:53;;;;;;;3.05;2.42;;;;;;;;;;5013500;28;20037;-52
2021/11/17 14:14:18;;;;;;;2.95;2.33;;;;;;;;;;5014117;28;20037;-53
2021/11/17 14:16:44;;;;;;;4.97;2.72;;;;;;;;;;5019468;28;20112;-50
2021/11/17 14:19:10;;;;;;;5.30;2.88;;;;;;;;;;5017715;28;20065;-50
2021/11/17 14:21:36;;;;;;;2.88;2.47;;;;;;;;;;5016413;28;20034;-58
2021/11/17 14:24:02;;;;;;;2.78;2.25;;;;;;;;;;5018409;28;20038;-57
2021/11/17 14:26:28;;;;;;;3.67;2.67;;;;;;;;;;5014846;28;20046;-57
2021/11/17 14:28:58;;;;;;;13.45;3.67;;;;;;;;;;5016881;28;20033;-58
2021/11/17 14:31:39;;;;;;;4.33;3.17;;;;;;;;;;5016939;28;20045;-58
2021/11/17 14:34:05;;;;;;;3.22;2.92;;;;;;;;;;5017681;28;20017;-58
2021/11/17 14:36:34;;;;;;;3.72;3.08;;;;;;;;;;5017456;28;20362;-58
2021/11/17 14:39:03;;;;;;;3.60;2.92;;;;;;;;;;5017737;28;20087;-59
2021/11/17 14:41:28;;;;;;;3.38;2.58;;;;;;;;;;5015893;28;20037;-59
2021/11/17 14:43:53;;;;;;;5.20;3.42;;;;;;;;;;5017567;28;20485;-60
2021/11/17 14:46:19;;;;;;;2.78;2.28;;;;;;;;;;5015518;28;20061;-53
2021/11/17 14:48:44;;;;;;;4.03;2.70;;;;;;;;;;5015247;28;20040;-54
2021/11/17 14:51:11;;;;;;;4.03;2.95;;;;;;;;;;5017590;28;20069;-54
2021/11/17 14:53:41;;;;;;;2.95;2.40;;;;;;;;;;5016007;28;20038;-54
2021/11/17 14:56:07;;;;;;;3.63;2.83;;;;;;;;;;5017894;28;20444;-55
2021/11/17 14:58:32;;;;;;;3.50;2.53;;;;;;;;;;5015026;28;20037;-60
2021/11/17 15:01:00;;;;;;;3.08;2.47;;;;;;;;;;5016211;28;20040;-59
2021/11/17 15:03:25;;;;;;;4.97;2.78;;;;;;;;;;5018300;28;20090;-60
2021/11/17 15:05:50;;;;;;;2.75;2.30;;;;;;;;;;5016098;28;20038;-60
2021/11/17 15:08:16;;;;;;;3.85;3.10;;;;;;;;;;5016261;28;20044;-55
2021/11/17 15:10:43;;;;;;;2.88;2.28;;;;;;;;;;5016824;28;20033;-55
2021/11/17 15:13:08;;;;;;;2.88;2.30;;;;;;;;;;5018640;28;20120;-54
2021/11/17 15:15:37;;;;;;;2.80;2.15;;;;;;;;;;5017866;28;20139;-52
2021/11/17 15:18:03;;;;;;;2.50;1.90;;;;;;;;;;5016899;28;20049;-52
2021/11/17 15:20:29;;;;;;;2.90;2.45;;;;;;;;;;5013067;28;20084;-53
2021/11/17 15:22:56;;;;;;;2.65;2.13;;;;;;;;;;5017684;28;20048;-54
2021/11/17 15:25:28;;;;;;;2.80;2.22;;;;;;;;;;5016370;28;20034;-53
2021/11/17 15:27:57;;;;;;;3.47;2.78;;;;;;;;;;5015375;28;20044;-52
2021/11/17 15:30:27;;;;;;;6.93;2.22;;;;;;;;;;5014966;28;20426;-54
2021/11/17 15:32:54;;;;;;;2.85;2.17;;;;;;;;;;5012300;28;20371;-55
2021/11/17 15:35:22;;;;;;;3.97;2.95;;;;;;;;;;5011821;28;20052;-51
2021/11/17 15:37:50;;;;;;;2.70;2.20;;;;;;;;;;5013251;28;20656;-59
2021/11/17 15:40:17;;;;;;;3.20;2.45;;;;;;;;;;5014575;28;20053;-59
2021/11/17 15:42:45;;;;;;;2.78;2.17;;;;;;;;;;5016469;28;20107;-59
2021/11/17 15:45:10;;;;;;;3.00;2.35;;;;;;;;;;5014865;28;20104;-59
2021/11/17 15:47:36;;;;;;;4.57;3.90;;;;;;;;;;5013506;28;20117;-59
2021/11/17 15:50:07;;;;;;;18.75;13.93;;;;;;;;;;5009094;28;20042;-59
2021/11/17 15:52:32;;;;;;;45.97;28.60;;;;;;;;;;5015512;28;20527;-59
2021/11/17 15:54:58;;;;;;;91.22;51.80;;;;;;;;;;5013837;28;20125;-59
2021/11/17 15:57:23;;;;;;;63.22;41.80;;;;;;;;;;5015271;28;20030;-59
2021/11/17 15:59:48;;;;;;;7.55;4.68;;;;;;;;;;5016916;28;20042;-59
2021/11/17 16:02:14;;;;;;;2.90;2.38;;;;;;;;;;5013611;28;20088;-59
2021/11/17 16:04:40;;;;;;;3.72;2.53;;;;;;;;;;5014559;28;20503;-54
2021/11/17 16:07:09;;;;;;;2.70;2.30;;;;;;;;;;5012572;28;20050;-54
2021/11/17 16:09:44;;;;;;;2.90;2.50;;;;;;;;;;5014478;28;20037;-51
2021/11/17 16:12:10;;;;;;;4.03;2.60;;;;;;;;;;5016389;28;20515;-53
2021/11/17 16:14:36;;;;;;;3.30;2.90;;;;;;;;;;5015866;28;20121;-53
2021/11/17 16:17:03;;;;;;;3.95;2.95;;;;;;;;;;5014844;28;20038;-53
2021/11/17 16:19:33;;;;;;;3.00;2.42;;;;;;;;;;5014603;28;20375;-59
2021/11/17 16:22:00;;;;;;;2.85;2.47;;;;;;;;;;5013658;28;20621;-59
2021/11/17 16:27:11;;;;;;;5.85;4.13;;;;;;;;;;5011198;28;20108;-59
2021/11/17 16:29:43;;;;;;;3.38;2.70;;;;;;;;;;5010886;28;20543;-59
2021/11/17 16:32:08;;;;;;;3.38;2.72;;;;;;;;;;5016383;28;20034;-59
2021/11/17 16:34:34;;;;;;;3.58;2.55;;;;;;;;;;5012563;28;20470;-58
2021/11/17 16:36:59;;;;;;;4.22;3.28;;;;;;;;;;5014790;28;20033;-59
2021/11/17 16:39:25;;;;;;;3.00;2.40;;;;;;;;;;5016561;28;20033;-59
2021/11/17 16:41:50;;;;;;;4.47;3.15;;;;;;;;;;5012732;28;20333;-59
2021/11/17 16:44:16;;;;;;;4.05;3.22;;;;;;;;;;5015684;28;20061;-57
2021/11/17 16:46:41;;;;;;;3.53;3.05;;;;;;;;;;5015459;28;20033;-52
2021/11/17 16:49:09;;;;;;;5.15;3.47;;;;;;;;;;5014893;28;20026;-51
2021/11/17 16:51:37;;;;;;;3.17;2.75;;;;;;;;;;5000907;28;20072;-51
2021/11/17 16:54:02;;;;;;;4.85;3.78;;;;;;;;;;5009672;28;20050;-58
2021/11/17 16:56:27;;;;;;;3.45;2.88;;;;;;;;;;5013845;28;20069;-59
2021/11/17 16:58:53;;;;;;;3.15;2.60;;;;;;;;;;5014925;28;20057;-59
2021/11/17 17:01:18;;;;;;;4.45;3.70;;;;;;;;;;5017438;28;20378;-59
2021/11/17 17:03:44;;;;;;;3.92;3.25;;;;;;;;;;5013116;28;20038;-58
2021/11/17 17:06:13;;;;;;;3.45;2.70;;;;;;;;;;5011612;28;20038;-57
2021/11/17 17:08:40;;;;;;;3.95;3.55;;;;;;;;;;5018266;28;20116;-58
2021/11/17 17:11:06;;;;;;;4.40;3.80;;;;;;;;;;5009879;28;20038;-59
2021/11/17 17:13:32;;;;;;;6.82;3.83;;;;;;;;;;5010800;28;20038;-57
2021/11/17 17:15:58;;;;;;;4.80;3.22;;;;;;;;;;5015654;28;20041;-56
2021/11/17 17:18:24;;;;;;;4.22;3.70;;;;;;;;;;5014291;28;20060;-58
2021/11/17 17:20:57;;;;;;;5.95;3.55;;;;;;;;;;5011028;28;20033;-58
2021/11/17 17:23:24;;;;;;;4.05;3.28;;;;;;;;;;5011461;28;20068;-57
2021/11/17 17:25:51;;;;;;;5.18;3.60;;;;;;;;;;5010960;28;20046;-58
2021/11/17 17:28:20;;;;;;;6.22;3.53;;;;;;;;;;5013805;28;20041;-56
2021/11/17 17:30:48;;;;;;;3.45;2.63;;;;;;;;;;5014252;28;20061;-57
2021/11/17 17:33:17;;;;;;;4.00;3.60;;;;;;;;;;5009228;28;20050;-58
2021/11/17 17:35:43;;;;;;;4.03;3.28;;;;;;;;;;5014052;28;20029;-58
2021/11/17 17:38:08;;;;;;;3.63;2.97;;;;;;;;;;5014953;28;20466;-58
2021/11/17 17:40:34;;;;;;;4.15;2.88;;;;;;;;;;5012781;28;20121;-58
2021/11/17 17:43:01;;;;;;;5.15;4.20;;;;;;;;;;5010943;28;20137;-58
2021/11/17 17:45:28;;;;;;;4.22;3.42;;;;;;;;;;5012571;28;20411;-56
2021/11/17 17:47:53;;;;;;;4.07;3.65;;;;;;;;;;5011421;28;20049;-57
2021/11/17 17:50:19;;;;;;;12.43;3.83;;;;;;;;;;5013035;28;20050;-58